ADDS METAR Data INFO
IDs: Format: Raw Decoded Include TAF

Data at: 2309 UTC 15 Aug 2018

METAR for:KJAX (Jacksonville Intl, FL, US)
Text:KJAX 152256Z 17007KT 9SM -RA SCT042CB BKN060 BKN100 BKN150 24/23 A3009 RMK AO2 RAB38 TSE47 SLP189 CB E-SE MOV NE P0000 T02440228
Temperature: 24.4°C ( 76°F)
Dewpoint: 22.8°C ( 73°F) [RH = 91%]
Pressure (altimeter):30.09 inches Hg (1019.0 mb) [Sea level pressure: 1018.9 mb]
Winds:from the S (170 degrees) at 8 MPH (7 knots; 3.6 m/s)
Visibility: 9 sm ( 14 km)
Ceiling:6000 feet AGL
Clouds: scattered clouds at 4200 feet AGL, broken clouds at 6000 feet AGL, broken clouds at 10000 feet AGL, broken clouds at 15000 feet AGL
Weather:-RA (light rain)

METAR for:KCRG (Jacksonville/Executi, FL, US)
Text:KCRG 152255Z 00000KT 5SM VCTS RA BR BKN031 BKN080 BKN095 23/23 A3010 RMK AO2 P0000 T02330233
Temperature: 23.3°C ( 74°F)
Dewpoint: 23.3°C ( 74°F) [RH = 100%]
Pressure (altimeter):30.10 inches Hg (1019.4 mb)
Winds:calm
Visibility: 5 sm ( 8 km)
Ceiling:3100 feet AGL
Clouds: broken clouds at 3100 feet AGL, broken clouds at 8000 feet AGL, broken clouds at 9500 feet AGL
Weather:VCTS RA BR (thunderstorm in vicinity, moderate rain, mist)

METAR for:KNIP (Jacksonville (NAS), FL, US)
Text:KNIP 152258Z 32007KT 7SM -RA FEW010 SCT030 BKN120 BKN250 26/24 A3009 RMK AO2 TSE57 CB DSNT NE T1 SET P0000 T02560239 $
Temperature: 25.6°C ( 78°F)
Dewpoint: 23.9°C ( 75°F) [RH = 90%]
Pressure (altimeter):30.09 inches Hg (1019.0 mb)
Winds:from the NW (320 degrees) at 8 MPH (7 knots; 3.6 m/s)
Visibility: 7 sm ( 11 km)
Ceiling:12000 feet AGL
Clouds: few clouds at 1000 feet AGL, scattered clouds at 3000 feet AGL, broken clouds at 12000 feet AGL, broken clouds at 25000 feet AGL
Weather:-RA (light rain)
QC Flag:SOME DATA ABOVE MAY BE INACCURATE!!!"$" is an indication the sensor requires maintenance.

METAR for:KNRB (Mayport (NS), FL, US)
Text:KNRB 152252Z 27006KT 1SM TSRA BR SCT012 BKN025CB OVC045 25/23 A3010 RMK AO2 TSB43 SLP192 FRQ LTGICCG VC W TS W MOV NE T1 SET P0016 T02500233 $
Temperature: 25.0°C ( 77°F)
Dewpoint: 23.3°C ( 74°F) [RH = 90%]
Pressure (altimeter):30.10 inches Hg (1019.4 mb) [Sea level pressure: 1019.2 mb]
Winds:from the W (270 degrees) at 7 MPH (6 knots; 3.1 m/s)
Visibility: 1.00 sm ( 1.61 km)
Ceiling:2500 feet AGL
Clouds: scattered clouds at 1200 feet AGL, broken clouds at 2500 feet AGL, overcast cloud deck at 4500 feet AGL
Weather:TSRA BR (rain associated with thunderstorm(s), mist)
QC Flag:SOME DATA ABOVE MAY BE INACCURATE!!!"$" is an indication the sensor requires maintenance.

METAR for:KFHB (Fernandina Beach Mun, FL, US)
Text:KFHB 152255Z AUTO 21007G11KT 1 1/4SM SCT009 BKN015 OVC024 25/22 A3010 RMK AO2 LTG DSNT SW T02500223
Temperature: 25.0°C ( 77°F)
Dewpoint: 22.3°C ( 72°F) [RH = 85%]
Pressure (altimeter):30.10 inches Hg (1019.4 mb)
Winds:from the SSW (210 degrees) at 8 MPH (7 knots; 3.6 m/s) gusting to 13 MPH (11 knots; 5.7 m/s)
Visibility: 1.25 sm ( 2.01 km)
Ceiling:1500 feet AGL
Clouds: scattered clouds at 900 feet AGL, broken clouds at 1500 feet AGL, overcast cloud deck at 2400 feet AGL
QC Flag:automated observation with no human augmentation

METAR for:KVQQ (Jacksonville/Cecil A, FL, US)
Text:KVQQ 152250Z VRB04KT 6SM DZ BKN100 24/23 A3009
Temperature: 24.0°C ( 75°F)
Dewpoint: 23.0°C ( 73°F) [RH = 94%]
Pressure (altimeter):30.09 inches Hg (1019.0 mb)
Winds:variable direction winds at 5 MPH (4 knots; 2.1 m/s)
Visibility: 6 sm ( 10 km)
Ceiling:10000 feet AGL
Clouds: broken clouds at 10000 feet AGL
Weather:DZ (moderate drizzle)